createdAt,value
2018-10-07T00:15:16.809Z,0.00
2018-10-07T00:16:16.720Z,0.00
2018-10-07T00:17:16.646Z,0.00
2018-10-07T00:18:16.559Z,0.00
2018-10-07T00:19:16.486Z,0.00
2018-10-07T00:20:16.397Z,0.00
2018-10-07T00:21:16.323Z,0.00
2018-10-07T00:22:16.235Z,0.00
2018-10-07T00:23:16.159Z,0.00
2018-10-07T00:24:16.084Z,0.00
2018-10-07T00:25:15.997Z,0.00
2018-10-07T00:26:15.910Z,0.00
2018-10-07T00:27:15.835Z,0.00
2018-10-07T00:28:15.762Z,0.00
2018-10-07T00:29:15.672Z,0.00
2018-10-07T00:30:15.587Z,0.00
2018-10-07T00:31:15.511Z,0.00
2018-10-07T00:32:15.422Z,0.00
2018-10-07T00:33:15.348Z,0.00
2018-10-07T00:34:15.267Z,0.00
2018-10-07T00:35:15.187Z,0.00
2018-10-07T00:36:15.098Z,0.00
2018-10-07T00:37:15.024Z,0.00
2018-10-07T00:38:14.937Z,0.00
2018-10-07T00:39:14.862Z,0.00
2018-10-07T00:40:14.776Z,0.00
2018-10-07T00:41:14.701Z,0.00
2018-10-07T00:42:14.612Z,0.00
2018-10-07T00:43:14.538Z,0.00
2018-10-07T00:44:14.454Z,0.00
2018-10-07T00:45:14.414Z,0.00
2018-10-07T00:46:14.288Z,0.00
2018-10-07T00:47:14.214Z,0.00
2018-10-07T00:48:14.125Z,0.00
2018-10-07T00:49:14.050Z,0.00
2018-10-07T00:50:13.964Z,0.00
2018-10-07T00:51:13.889Z,0.00
2018-10-07T00:52:13.801Z,0.00
2018-10-07T00:53:13.729Z,0.00
2018-10-07T00:54:13.639Z,0.00
2018-10-07T00:55:13.566Z,0.00
2018-10-07T00:56:13.478Z,0.00
2018-10-07T00:57:13.402Z,0.00
2018-10-07T00:58:13.316Z,0.00
2018-10-07T00:59:13.241Z,0.00
2018-10-07T01:00:13.159Z,0.00
2018-10-07T01:01:13.078Z,0.00
2018-10-07T01:02:12.991Z,0.00
2018-10-07T01:03:12.916Z,0.00
2018-10-07T01:04:12.828Z,0.00
2018-10-07T01:05:12.752Z,0.00
2018-10-07T01:06:12.675Z,0.00
2018-10-07T01:07:12.592Z,0.00
2018-10-07T01:08:12.503Z,0.00
2018-10-07T01:09:12.441Z,0.00
2018-10-07T01:10:12.346Z,0.00
2018-10-07T01:11:12.268Z,0.00
2018-10-07T01:12:12.178Z,0.00
2018-10-07T01:13:12.104Z,0.00
2018-10-07T01:14:12.017Z,0.00
2018-10-07T01:15:11.944Z,0.00
2018-10-07T01:16:11.853Z,0.00
2018-10-07T01:17:11.779Z,0.00
2018-10-07T01:18:11.694Z,0.00
2018-10-07T01:19:11.617Z,0.00
2018-10-07T01:20:11.529Z,0.00
2018-10-07T01:21:11.443Z,0.00
2018-10-07T01:22:11.368Z,0.00
2018-10-07T01:23:11.283Z,0.00
2018-10-07T01:24:11.207Z,0.00
2018-10-07T01:25:11.129Z,0.00
2018-10-07T01:26:11.045Z,0.00
2018-10-07T01:27:10.955Z,0.00
2018-10-07T01:28:10.879Z,0.00
2018-10-07T01:29:10.792Z,0.00
2018-10-07T01:30:10.718Z,0.00
2018-10-07T01:31:10.630Z,0.00
2018-10-07T01:32:10.572Z,0.00
2018-10-07T01:33:10.469Z,0.00
2018-10-07T01:34:10.394Z,0.00
2018-10-07T01:35:10.319Z,0.00
2018-10-07T01:36:10.231Z,0.00
2018-10-07T01:37:10.149Z,0.00
2018-10-07T01:38:10.069Z,0.00
2018-10-07T01:39:09.981Z,0.00
2018-10-07T01:40:09.907Z,0.00
2018-10-07T01:41:09.819Z,0.00
2018-10-07T01:42:09.746Z,0.00
2018-10-07T01:43:09.660Z,0.00
2018-10-07T01:44:09.582Z,0.00
2018-10-07T01:45:09.496Z,0.00
2018-10-07T01:46:09.420Z,0.00
2018-10-07T01:47:09.332Z,0.00
2018-10-07T01:48:09.257Z,0.00
2018-10-07T01:49:09.170Z,0.00
2018-10-07T01:50:09.096Z,0.00
2018-10-07T01:51:09.007Z,0.00
2018-10-07T01:52:08.935Z,0.00
2018-10-07T01:53:08.846Z,0.00
2018-10-07T01:54:08.773Z,0.00
2018-10-07T01:55:08.683Z,0.00
2018-10-07T01:56:08.608Z,0.00
2018-10-07T01:57:08.523Z,0.00
2018-10-07T01:58:08.448Z,0.00
2018-10-07T01:59:08.359Z,0.00
2018-10-07T02:00:08.283Z,0.00
2018-10-07T02:01:08.198Z,0.00
2018-10-07T02:02:08.122Z,0.00
2018-10-07T02:03:08.038Z,0.00
2018-10-07T02:04:07.959Z,0.00
2018-10-07T02:05:07.915Z,0.00
2018-10-07T02:06:07.797Z,0.00
2018-10-07T02:07:07.709Z,0.00
2018-10-07T02:08:07.624Z,0.00
2018-10-07T02:09:07.549Z,0.00
2018-10-07T02:10:07.461Z,0.00
2018-10-07T02:11:07.399Z,0.00
2018-10-07T02:12:07.298Z,0.00
2018-10-07T02:13:07.229Z,0.00
2018-10-07T02:14:07.136Z,0.00
2018-10-07T02:15:07.060Z,0.00
2018-10-07T02:16:06.975Z,0.00
2018-10-07T02:17:06.953Z,0.00
2018-10-07T02:18:06.810Z,0.00
2018-10-07T02:19:06.736Z,0.00
2018-10-07T02:20:06.651Z,0.00
2018-10-07T02:21:06.575Z,0.00
2018-10-07T02:22:06.487Z,0.00
2018-10-07T02:23:06.410Z,0.00
2018-10-07T02:24:06.326Z,0.00
2018-10-07T02:25:06.250Z,0.00
2018-10-07T02:26:06.161Z,0.00
2018-10-07T02:27:06.087Z,0.00
2018-10-07T02:28:06.000Z,0.00
2018-10-07T02:29:05.925Z,0.00
2018-10-07T02:30:05.837Z,0.00
2018-10-07T02:31:05.763Z,0.00
2018-10-07T02:32:05.678Z,0.00
2018-10-07T02:33:05.591Z,0.00
2018-10-07T02:34:05.525Z,0.00
2018-10-07T02:35:05.426Z,0.00
2018-10-07T02:36:05.351Z,0.00
2018-10-07T02:37:05.265Z,0.00
2018-10-07T02:38:05.187Z,0.00
2018-10-07T02:39:05.104Z,0.00
2018-10-07T02:40:05.025Z,0.00
2018-10-07T02:41:04.937Z,0.00
2018-10-07T02:42:04.862Z,0.00
2018-10-07T02:43:04.776Z,0.00
2018-10-07T02:44:04.703Z,0.00
2018-10-07T02:45:04.626Z,0.00
2018-10-07T02:46:04.538Z,0.00
2018-10-07T02:47:04.451Z,0.00
2018-10-07T02:48:04.376Z,0.00
2018-10-07T02:49:04.290Z,0.00
2018-10-07T02:50:04.219Z,0.00
2018-10-07T02:51:04.128Z,0.00
2018-10-07T02:52:04.040Z,0.00
2018-10-07T02:53:03.990Z,0.00
2018-10-07T02:54:03.889Z,0.00
2018-10-07T02:55:03.803Z,0.00
2018-10-07T02:56:03.727Z,0.00
2018-10-07T02:57:03.640Z,0.00
2018-10-07T02:58:03.553Z,0.00
2018-10-07T02:59:03.532Z,0.00
2018-10-07T03:00:03.391Z,0.00
2018-10-07T03:01:03.329Z,0.00
2018-10-07T03:02:03.228Z,0.00
2018-10-07T03:03:03.160Z,0.00
2018-10-07T03:04:03.079Z,0.00
2018-10-07T03:05:02.993Z,0.00
2018-10-07T03:06:02.903Z,0.00
2018-10-07T03:07:02.829Z,0.00
2018-10-07T03:08:02.741Z,0.00
2018-10-07T03:09:02.668Z,0.00
2018-10-07T03:10:02.580Z,0.00
2018-10-07T03:11:02.504Z,0.00
2018-10-07T03:12:02.430Z,0.00
2018-10-07T03:13:02.341Z,0.00
2018-10-07T03:14:02.255Z,0.00
2018-10-07T03:15:02.169Z,0.00
2018-10-07T03:16:02.092Z,0.00
2018-10-07T03:17:02.005Z,0.00
2018-10-07T03:18:01.932Z,0.00
2018-10-07T03:19:01.848Z,0.00
2018-10-07T03:20:01.769Z,0.00
2018-10-07T03:21:01.692Z,0.00
2018-10-07T03:22:01.608Z,0.00
2018-10-07T03:23:01.530Z,0.00
2018-10-07T03:24:01.445Z,0.00
2018-10-07T03:25:01.355Z,0.00
2018-10-07T03:26:01.281Z,0.00
2018-10-07T03:27:01.193Z,0.00
2018-10-07T03:28:01.131Z,0.00
2018-10-07T03:29:01.033Z,0.00
2018-10-07T03:30:00.945Z,0.00
2018-10-07T03:31:00.868Z,0.00
2018-10-07T03:32:00.798Z,0.00
2018-10-07T03:33:00.707Z,0.00
2018-10-07T03:34:00.619Z,0.00
2018-10-07T03:35:00.545Z,0.00
2018-10-07T03:36:00.461Z,0.00
2018-10-07T03:37:00.386Z,0.00
2018-10-07T03:38:00.294Z,0.00
2018-10-07T03:39:00.220Z,0.00
2018-10-07T03:40:00.133Z,0.00
2018-10-07T03:41:00.059Z,0.00
2018-10-07T03:41:59.984Z,0.00
2018-10-07T03:42:59.896Z,0.00
2018-10-07T03:43:59.813Z,0.00
2018-10-07T03:44:59.720Z,0.00
2018-10-07T03:45:59.895Z,0.00
2018-10-07T03:46:59.561Z,0.00
2018-10-07T03:47:59.484Z,0.00
2018-10-07T03:48:59.396Z,0.00
2018-10-07T03:49:59.321Z,0.00
2018-10-07T03:50:59.236Z,0.00
2018-10-07T03:51:59.159Z,0.00
2018-10-07T03:52:59.071Z,0.00
2018-10-07T03:53:58.996Z,0.00
2018-10-07T03:54:58.911Z,0.00
2018-10-07T03:55:58.823Z,0.00
2018-10-07T03:56:58.748Z,0.00
2018-10-07T03:57:58.671Z,0.00
2018-10-07T03:58:58.584Z,0.00
2018-10-07T03:59:58.510Z,0.00
2018-10-07T04:00:58.422Z,0.00
2018-10-07T04:01:58.335Z,0.00
2018-10-07T04:02:58.261Z,0.00
2018-10-07T04:03:58.173Z,0.00
2018-10-07T04:04:58.098Z,0.00
2018-10-07T04:05:58.261Z,0.00
2018-10-07T04:06:57.936Z,0.00
2018-10-07T04:07:57.861Z,0.00
2018-10-07T04:08:57.764Z,0.00
2018-10-07T04:09:57.691Z,0.00
2018-10-07T04:10:57.598Z,0.00
2018-10-07T04:11:57.524Z,0.00
2018-10-07T04:12:57.437Z,0.00
2018-10-07T04:13:57.361Z,0.00
2018-10-07T04:14:57.274Z,0.00
2018-10-07T04:15:57.199Z,0.00
2018-10-07T04:16:57.112Z,0.00
2018-10-07T04:17:57.038Z,0.00
2018-10-07T04:18:56.962Z,0.00
2018-10-07T04:19:56.863Z,0.00
2018-10-07T04:20:57.039Z,0.00
2018-10-07T04:21:56.700Z,0.00
2018-10-07T04:22:56.625Z,0.00
2018-10-07T04:23:56.538Z,0.00
2018-10-07T04:24:56.463Z,0.00
2018-10-07T04:25:56.374Z,0.00
2018-10-07T04:26:56.301Z,0.00
2018-10-07T04:27:56.215Z,0.00
2018-10-07T04:28:56.139Z,0.00
2018-10-07T04:29:56.064Z,0.00
2018-10-07T04:30:55.976Z,0.00
2018-10-07T04:31:55.890Z,0.00
2018-10-07T04:32:55.801Z,0.00
2018-10-07T04:33:55.728Z,0.00
2018-10-07T04:34:55.639Z,0.00
2018-10-07T04:35:55.865Z,0.00
2018-10-07T04:36:55.476Z,0.00
2018-10-07T04:37:55.401Z,0.00
2018-10-07T04:38:55.314Z,0.00
2018-10-07T04:39:55.343Z,0.00
2018-10-07T04:40:55.151Z,0.00
2018-10-07T04:41:55.076Z,0.00
2018-10-07T04:42:54.990Z,0.00
2018-10-07T04:43:54.902Z,0.00
2018-10-07T04:44:54.827Z,0.00
2018-10-07T04:45:54.740Z,0.00
2018-10-07T04:46:54.665Z,0.00
2018-10-07T04:47:54.577Z,0.00
2018-10-07T04:48:54.503Z,0.00
2018-10-07T04:49:54.417Z,0.00
2018-10-07T04:50:54.341Z,4.00
2018-10-07T04:51:54.253Z,4.00
2018-10-07T04:52:54.177Z,0.00
2018-10-07T04:53:54.095Z,4.00
2018-10-07T04:54:54.003Z,4.00
2018-10-07T04:55:53.928Z,4.00
2018-10-07T04:56:53.841Z,4.00
2018-10-07T04:57:53.765Z,4.00
2018-10-07T04:58:53.678Z,8.00
2018-10-07T04:59:53.604Z,4.00
2018-10-07T05:00:53.767Z,8.00
2018-10-07T05:01:53.442Z,4.00
2018-10-07T05:02:53.354Z,8.00
2018-10-07T05:03:53.279Z,8.00
2018-10-07T05:04:53.192Z,12.00
2018-10-07T05:05:53.117Z,16.00
2018-10-07T05:06:53.029Z,20.00
2018-10-07T05:07:52.943Z,24.00
2018-10-07T05:08:52.868Z,32.00
2018-10-07T05:09:52.780Z,40.00
2018-10-07T05:10:52.717Z,44.00
2018-10-07T05:11:52.667Z,48.00
2018-10-07T05:12:52.543Z,52.00
2018-10-07T05:13:52.454Z,64.00
2018-10-07T05:14:52.379Z,72.00
2018-10-07T05:15:52.294Z,84.00
2018-10-07T05:16:52.221Z,96.00
2018-10-07T05:17:52.130Z,116.00
2018-10-07T05:18:52.055Z,132.00
2018-10-07T05:19:51.970Z,152.00
2018-10-07T05:20:51.944Z,168.00
2018-10-07T05:21:51.818Z,188.00
2018-10-07T05:22:51.731Z,204.00
2018-10-07T05:23:51.643Z,220.00
2018-10-07T05:24:51.557Z,244.00
2018-10-07T05:25:51.481Z,260.00
2018-10-07T05:26:51.395Z,284.00
2018-10-07T05:27:51.321Z,300.00
2018-10-07T05:28:51.232Z,328.00
2018-10-07T05:29:51.157Z,352.00
2018-10-07T05:30:51.081Z,388.00
2018-10-07T05:31:50.995Z,428.00
2018-10-07T05:32:50.920Z,464.00
2018-10-07T05:33:50.832Z,492.00
2018-10-07T05:34:50.745Z,528.00
2018-10-07T05:35:50.671Z,552.00
2018-10-07T05:36:50.582Z,584.00
2018-10-07T05:37:50.507Z,616.00
2018-10-07T05:38:50.421Z,652.00
2018-10-07T05:39:50.335Z,692.00
2018-10-07T05:40:50.272Z,728.00
2018-10-07T05:41:50.185Z,772.00
2018-10-07T05:42:50.111Z,820.00
2018-10-07T05:43:50.009Z,868.00
2018-10-07T05:44:49.977Z,920.00
2018-10-07T05:45:49.847Z,976.00
2018-10-07T05:46:49.772Z,1032.00
2018-10-07T05:47:49.683Z,1088.00
2018-10-07T05:48:49.611Z,1128.00
2018-10-07T05:49:49.523Z,1172.00
2018-10-07T05:50:49.447Z,1220.00
2018-10-07T05:51:49.361Z,1268.00
2018-10-07T05:52:49.284Z,1316.00
2018-10-07T05:53:49.200Z,1364.00
2018-10-07T05:54:49.124Z,1412.00
2018-10-07T05:55:49.140Z,1476.00
2018-10-07T05:56:48.960Z,1544.00
2018-10-07T05:57:48.878Z,1624.00
2018-10-07T05:58:48.801Z,1692.00
2018-10-07T05:59:48.710Z,1756.00
2018-10-07T06:00:48.635Z,1808.00
2018-10-07T06:01:48.644Z,1856.00
2018-10-07T06:02:48.473Z,1888.00
2018-10-07T06:03:48.387Z,1928.00
2018-10-07T06:04:48.301Z,1964.00
2018-10-07T06:05:48.224Z,1992.00
2018-10-07T06:06:48.137Z,2032.00
2018-10-07T06:07:48.061Z,2104.00
2018-10-07T06:08:47.974Z,2156.00
2018-10-07T06:09:47.899Z,2196.00
2018-10-07T06:10:47.813Z,2236.00
2018-10-07T06:11:47.751Z,2288.00
2018-10-07T06:12:47.651Z,2288.00
2018-10-07T06:13:47.578Z,2288.00
2018-10-07T06:14:47.501Z,2296.00
2018-10-07T06:15:47.412Z,2300.00
2018-10-07T06:16:47.327Z,2332.00
2018-10-07T06:17:47.250Z,2452.00
2018-10-07T06:18:47.164Z,2604.00
2018-10-07T06:19:47.087Z,2648.00
2018-10-07T06:20:47.001Z,2572.00
2018-10-07T06:21:46.926Z,2332.00
2018-10-07T06:22:46.851Z,2024.00
2018-10-07T06:23:46.786Z,1972.00
2018-10-07T06:24:46.680Z,2212.00
2018-10-07T06:25:46.605Z,2560.00
2018-10-07T06:26:46.513Z,2676.00
2018-10-07T06:27:46.452Z,2316.00
2018-10-07T06:28:46.351Z,2284.00
2018-10-07T06:29:46.349Z,1744.00
2018-10-07T06:30:46.201Z,1636.00
2018-10-07T06:31:46.113Z,1684.00
2018-10-07T06:32:46.027Z,1588.00
2018-10-07T06:33:45.952Z,1552.00
2018-10-07T06:34:45.863Z,1380.00
2018-10-07T06:35:45.789Z,1616.00
2018-10-07T06:36:45.702Z,1784.00
2018-10-07T06:37:45.627Z,1316.00
2018-10-07T06:38:45.594Z,1352.00
2018-10-07T06:39:45.524Z,1236.00
2018-10-07T06:40:45.377Z,1204.00
2018-10-07T06:41:45.303Z,1372.00
2018-10-07T06:42:45.214Z,1760.00
2018-10-07T06:43:45.146Z,1752.00
2018-10-07T06:44:45.053Z,1404.00
2018-10-07T06:45:44.993Z,1048.00
2018-10-07T06:46:44.892Z,1108.00
2018-10-07T06:47:44.816Z,1108.00
2018-10-07T06:48:44.729Z,1336.00
2018-10-07T06:49:44.659Z,1148.00
2018-10-07T06:50:44.572Z,1336.00
2018-10-07T06:51:44.490Z,1524.00
2018-10-07T06:52:44.403Z,1184.00
2018-10-07T06:53:44.328Z,1320.00
2018-10-07T06:54:44.240Z,1444.00
2018-10-07T06:55:44.166Z,1376.00
2018-10-07T06:56:44.079Z,1224.00
2018-10-07T06:57:44.006Z,1476.00
2018-10-07T06:58:43.929Z,1508.00
2018-10-07T06:59:43.893Z,1300.00
2018-10-07T07:00:43.758Z,1488.00
2018-10-07T07:01:43.680Z,1736.00
2018-10-07T07:02:43.593Z,1984.00
2018-10-07T07:03:43.530Z,2576.00
2018-10-07T07:04:43.430Z,2620.00
2018-10-07T07:05:43.357Z,2876.00
2018-10-07T07:06:43.268Z,3244.00
2018-10-07T07:07:43.192Z,4952.00
2018-10-07T07:08:43.106Z,5428.00
2018-10-07T07:09:43.031Z,5028.00
2018-10-07T07:10:42.956Z,5304.00
2018-10-07T07:11:42.867Z,4068.00
2018-10-07T07:12:42.781Z,4032.00
2018-10-07T07:13:42.707Z,3816.00
2018-10-07T07:14:42.618Z,3880.00
2018-10-07T07:15:42.557Z,3876.00
2018-10-07T07:16:42.457Z,4548.00
2018-10-07T07:17:42.381Z,5268.00
2018-10-07T07:18:42.295Z,4016.00
2018-10-07T07:19:42.272Z,3120.00
2018-10-07T07:20:42.131Z,2984.00
2018-10-07T07:21:42.058Z,3388.00
2018-10-07T07:22:41.970Z,3912.00
2018-10-07T07:23:41.894Z,4640.00
2018-10-07T07:24:41.819Z,3708.00
2018-10-07T07:25:41.734Z,3748.00
2018-10-07T07:26:41.657Z,2984.00
2018-10-07T07:27:41.573Z,3600.00
2018-10-07T07:28:41.483Z,3844.00
2018-10-07T07:29:41.408Z,3584.00
2018-10-07T07:30:41.334Z,3516.00
2018-10-07T07:31:41.258Z,3184.00
2018-10-07T07:32:41.170Z,3976.00
2018-10-07T07:33:41.083Z,3164.00
2018-10-07T07:34:41.009Z,2932.00
2018-10-07T07:35:40.920Z,3448.00
2018-10-07T07:36:40.864Z,3336.00
2018-10-07T07:37:40.764Z,3016.00
2018-10-07T07:38:40.684Z,2936.00
2018-10-07T07:39:40.597Z,2472.00
2018-10-07T07:40:40.521Z,2372.00
2018-10-07T07:41:40.437Z,2280.00
2018-10-07T07:42:40.359Z,2224.00
2018-10-07T07:43:40.271Z,1988.00
2018-10-07T07:44:40.197Z,1564.00
2018-10-07T07:45:40.121Z,1496.00
2018-10-07T07:46:40.040Z,1520.00
2018-10-07T07:47:39.960Z,1500.00
2018-10-07T07:48:39.872Z,1616.00
2018-10-07T07:49:39.786Z,1560.00
2018-10-07T07:50:39.711Z,1284.00
2018-10-07T07:51:39.624Z,1088.00
2018-10-07T07:52:39.547Z,1036.00
2018-10-07T07:53:39.464Z,1124.00
2018-10-07T07:54:39.386Z,1312.00
2018-10-07T07:55:39.297Z,1304.00
2018-10-07T07:56:39.222Z,1420.00
2018-10-07T07:57:39.138Z,1460.00
2018-10-07T07:58:39.062Z,1524.00
2018-10-07T07:59:38.974Z,1672.00
2018-10-07T08:00:38.897Z,1564.00
2018-10-07T08:01:38.812Z,1440.00
2018-10-07T08:02:38.737Z,1788.00
2018-10-07T08:03:38.648Z,1916.00
2018-10-07T08:04:38.574Z,2404.00
2018-10-07T08:05:38.486Z,3284.00
2018-10-07T08:06:38.413Z,3252.00
2018-10-07T08:07:38.324Z,3064.00
2018-10-07T08:08:38.307Z,2616.00
2018-10-07T08:09:38.163Z,2316.00
2018-10-07T08:10:38.088Z,2340.00
2018-10-07T08:11:38.002Z,2672.00
2018-10-07T08:12:37.914Z,2800.00
2018-10-07T08:13:37.838Z,2668.00
2018-10-07T08:14:37.751Z,2860.00
2018-10-07T08:15:37.676Z,2884.00
2018-10-07T08:16:37.593Z,2828.00
2018-10-07T08:17:37.558Z,3092.00
2018-10-07T08:18:37.426Z,3344.00
2018-10-07T08:19:37.350Z,3652.00
2018-10-07T08:20:37.264Z,3712.00
2018-10-07T08:21:37.190Z,3524.00
2018-10-07T08:22:37.100Z,3292.00
2018-10-07T08:23:37.063Z,3244.00
2018-10-07T08:24:36.938Z,3556.00
2018-10-07T08:25:36.865Z,4700.00
2018-10-07T08:26:36.776Z,7072.00
2018-10-07T08:27:36.690Z,6728.00
2018-10-07T08:28:36.615Z,4692.00
2018-10-07T08:29:36.601Z,4352.00
2018-10-07T08:30:36.452Z,5036.00
2018-10-07T08:31:36.367Z,5244.00
2018-10-07T08:32:36.290Z,4920.00
2018-10-07T08:33:36.202Z,4412.00
2018-10-07T08:34:36.129Z,3992.00
2018-10-07T08:35:36.040Z,4072.00
2018-10-07T08:36:35.967Z,4460.00
2018-10-07T08:37:35.878Z,5132.00
2018-10-07T08:38:35.803Z,5752.00
2018-10-07T08:39:35.717Z,6560.00
2018-10-07T08:40:35.640Z,4224.00
2018-10-07T08:41:35.553Z,4372.00
2018-10-07T08:42:35.478Z,5768.00
2018-10-07T08:43:35.394Z,4980.00
2018-10-07T08:44:35.317Z,5144.00
2018-10-07T08:45:35.229Z,6000.00
2018-10-07T08:46:35.154Z,7484.00
2018-10-07T08:47:35.067Z,8780.00
2018-10-07T08:48:34.980Z,5628.00
2018-10-07T08:49:34.906Z,6860.00
2018-10-07T08:50:34.829Z,5248.00
2018-10-07T08:51:34.745Z,7880.00
2018-10-07T08:52:34.667Z,8416.00
2018-10-07T08:53:34.582Z,9332.00
2018-10-07T08:54:34.494Z,9840.00
2018-10-07T08:55:34.418Z,11780.00
2018-10-07T08:56:34.362Z,8520.00
2018-10-07T08:57:34.255Z,6628.00
2018-10-07T08:58:34.167Z,8428.00
2018-10-07T08:59:34.092Z,8004.00
2018-10-07T09:00:34.005Z,7716.00
2018-10-07T09:01:33.930Z,8720.00
2018-10-07T09:02:33.854Z,11376.00
2018-10-07T09:03:33.769Z,7992.00
2018-10-07T09:04:33.694Z,8172.00
2018-10-07T09:05:33.605Z,7380.00
2018-10-07T09:06:33.530Z,6752.00
2018-10-07T09:07:33.449Z,9480.00
2018-10-07T09:08:33.368Z,12044.00
2018-10-07T09:09:33.280Z,8652.00
2018-10-07T09:10:33.206Z,11476.00
2018-10-07T09:11:33.121Z,11680.00
2018-10-07T09:12:33.044Z,11152.00
2018-10-07T09:13:32.956Z,10328.00
2018-10-07T09:14:32.885Z,8904.00
2018-10-07T09:15:32.795Z,9496.00
2018-10-07T09:16:32.719Z,7548.00
2018-10-07T09:17:32.645Z,7892.00
2018-10-07T09:18:32.557Z,11344.00
2018-10-07T09:19:32.481Z,10996.00
2018-10-07T09:20:32.396Z,14660.00
2018-10-07T09:21:32.321Z,13124.00
2018-10-07T09:22:32.232Z,16088.00
2018-10-07T09:23:32.157Z,14880.00
2018-10-07T09:24:32.072Z,13824.00
2018-10-07T09:25:31.996Z,13908.00
2018-10-07T09:26:31.921Z,14272.00
2018-10-07T09:27:31.881Z,12592.00
2018-10-07T09:28:31.757Z,14100.00
2018-10-07T09:29:31.672Z,13252.00
2018-10-07T09:30:31.597Z,9756.00
2018-10-07T09:31:31.509Z,8188.00
2018-10-07T09:32:31.522Z,8864.00
2018-10-07T09:33:31.358Z,8608.00
2018-10-07T09:34:31.272Z,6800.00
2018-10-07T09:35:31.204Z,5748.00
2018-10-07T09:36:31.109Z,8456.00
2018-10-07T09:37:31.033Z,7880.00
2018-10-07T09:38:30.958Z,7244.00
2018-10-07T09:39:30.930Z,6396.00
2018-10-07T09:40:30.798Z,6216.00
2018-10-07T09:41:30.713Z,7080.00
2018-10-07T09:42:30.636Z,7196.00
2018-10-07T09:43:30.547Z,8336.00
2018-10-07T09:44:30.472Z,10324.00
2018-10-07T09:45:30.399Z,9500.00
2018-10-07T09:46:30.309Z,6648.00
2018-10-07T09:47:30.235Z,5360.00
2018-10-07T09:48:30.148Z,5192.00
2018-10-07T09:49:30.078Z,5808.00
2018-10-07T09:50:29.985Z,7004.00
2018-10-07T09:51:29.912Z,6612.00
2018-10-07T09:52:29.824Z,5820.00
2018-10-07T09:53:29.749Z,6260.00
2018-10-07T09:54:29.663Z,6656.00
2018-10-07T09:55:29.585Z,6296.00
2018-10-07T09:56:29.525Z,6520.00
2018-10-07T09:57:29.425Z,6832.00
2018-10-07T09:58:29.356Z,6540.00
2018-10-07T09:59:29.262Z,6860.00
2018-10-07T10:00:29.186Z,7656.00
2018-10-07T10:01:29.100Z,7852.00
2018-10-07T10:02:29.025Z,6476.00
2018-10-07T10:03:28.937Z,6904.00
2018-10-07T10:04:28.870Z,5924.00
2018-10-07T10:05:28.775Z,5168.00
2018-10-07T10:06:28.700Z,5780.00
2018-10-07T10:07:28.612Z,5200.00
2018-10-07T10:08:28.550Z,4804.00
2018-10-07T10:09:28.450Z,4880.00
2018-10-07T10:10:28.376Z,4764.00
2018-10-07T10:11:28.291Z,4400.00
2018-10-07T10:12:28.213Z,4652.00
2018-10-07T10:13:28.127Z,4484.00
2018-10-07T10:14:28.051Z,4132.00
2018-10-07T10:15:27.963Z,4064.00
2018-10-07T10:16:27.888Z,4312.00
2018-10-07T10:17:27.803Z,4752.00
2018-10-07T10:18:27.727Z,4896.00
2018-10-07T10:19:27.656Z,4104.00
2018-10-07T10:20:27.563Z,3560.00
2018-10-07T10:21:27.477Z,3248.00
2018-10-07T10:22:27.402Z,3184.00
2018-10-07T10:23:27.315Z,3336.00
2018-10-07T10:24:27.239Z,3312.00
2018-10-07T10:25:27.152Z,3112.00
2018-10-07T10:26:27.078Z,2952.00
2018-10-07T10:27:27.002Z,2728.00
2018-10-07T10:28:26.913Z,2660.00
2018-10-07T10:29:26.827Z,2720.00
2018-10-07T10:30:26.752Z,2824.00
2018-10-07T10:31:26.668Z,2996.00
2018-10-07T10:32:26.589Z,2848.00
2018-10-07T10:33:26.503Z,2680.00
2018-10-07T10:34:26.428Z,2336.00
2018-10-07T10:35:26.341Z,2048.00
2018-10-07T10:36:26.265Z,1912.00
2018-10-07T10:37:26.182Z,1932.00
2018-10-07T10:38:26.103Z,1780.00
2018-10-07T10:39:26.089Z,1692.00
2018-10-07T10:40:25.942Z,2084.00
2018-10-07T10:41:25.853Z,2352.00
2018-10-07T10:42:25.779Z,2092.00
2018-10-07T10:43:25.691Z,2748.00
2018-10-07T10:44:25.631Z,3172.00
2018-10-07T10:45:25.530Z,4072.00
2018-10-07T10:46:25.454Z,4764.00
2018-10-07T10:47:25.366Z,6784.00
2018-10-07T10:48:25.279Z,6008.00
2018-10-07T10:49:25.204Z,3516.00
2018-10-07T10:50:25.117Z,2840.00
2018-10-07T10:51:25.043Z,2424.00
2018-10-07T10:52:24.954Z,2632.00
2018-10-07T10:53:24.880Z,3560.00
2018-10-07T10:54:24.805Z,3420.00
2018-10-07T10:55:24.718Z,3256.00
2018-10-07T10:56:24.630Z,4124.00
2018-10-07T10:57:24.557Z,3872.00
2018-10-07T10:58:24.467Z,3624.00
2018-10-07T10:59:24.395Z,3248.00
2018-10-07T11:00:24.306Z,2676.00
2018-10-07T11:01:24.232Z,2576.00
2018-10-07T11:02:24.143Z,4088.00
2018-10-07T11:03:24.057Z,6996.00
2018-10-07T11:04:23.999Z,6872.00
2018-10-07T11:05:23.894Z,6380.00
2018-10-07T11:06:23.832Z,4092.00
2018-10-07T11:07:23.735Z,6148.00
2018-10-07T11:08:23.657Z,6224.00
2018-10-07T11:09:23.570Z,7076.00
2018-10-07T11:10:23.494Z,7276.00
2018-10-07T11:11:23.408Z,5860.00
2018-10-07T11:12:23.334Z,3736.00
2018-10-07T11:13:23.244Z,6272.00
2018-10-07T11:14:23.171Z,7608.00
2018-10-07T11:15:23.129Z,8468.00
2018-10-07T11:16:23.008Z,8864.00
2018-10-07T11:17:22.921Z,9160.00
2018-10-07T11:18:22.848Z,8276.00
2018-10-07T11:19:22.786Z,9012.00
2018-10-07T11:20:22.675Z,9556.00
2018-10-07T11:21:22.595Z,11212.00
2018-10-07T11:22:22.509Z,11012.00
2018-10-07T11:23:22.434Z,11416.00
2018-10-07T11:24:22.347Z,10812.00
2018-10-07T11:25:22.271Z,9880.00
2018-10-07T11:26:22.185Z,9220.00
2018-10-07T11:27:22.112Z,9368.00
2018-10-07T11:28:22.021Z,8420.00
2018-10-07T11:29:21.951Z,8980.00
2018-10-07T11:30:21.859Z,8456.00
2018-10-07T11:31:21.785Z,6836.00
2018-10-07T11:32:21.698Z,6068.00
2018-10-07T11:33:21.639Z,6592.00
2018-10-07T11:34:21.546Z,7204.00
2018-10-07T11:35:21.464Z,7904.00
2018-10-07T11:36:21.375Z,9808.00
2018-10-07T11:37:21.297Z,10084.00
2018-10-07T11:38:21.223Z,9324.00
2018-10-07T11:39:21.135Z,10644.00
2018-10-07T11:40:21.061Z,8868.00
2018-10-07T11:41:20.972Z,9400.00
2018-10-07T11:42:20.897Z,9864.00
2018-10-07T11:43:20.811Z,9888.00
2018-10-07T11:44:20.739Z,9728.00
2018-10-07T11:45:20.650Z,9036.00
2018-10-07T11:46:20.574Z,8088.00
2018-10-07T11:47:20.493Z,8276.00
2018-10-07T11:48:20.412Z,7068.00
2018-10-07T11:49:20.323Z,7672.00
2018-10-07T11:50:20.249Z,7368.00
2018-10-07T11:51:20.161Z,6000.00
2018-10-07T11:52:20.087Z,5752.00
2018-10-07T11:53:19.999Z,6084.00
2018-10-07T11:54:19.924Z,6864.00
2018-10-07T11:55:19.838Z,6220.00
2018-10-07T11:56:19.762Z,5748.00
2018-10-07T11:57:19.687Z,5116.00
2018-10-07T11:58:19.603Z,5064.00
2018-10-07T11:59:19.524Z,5536.00
2018-10-07T12:00:19.438Z,5488.00
2018-10-07T12:01:19.362Z,6272.00
2018-10-07T12:02:19.306Z,6228.00
2018-10-07T12:03:19.200Z,6520.00
2018-10-07T12:04:19.117Z,6140.00
2018-10-07T12:05:19.038Z,5588.00
2018-10-07T12:06:18.951Z,5104.00
2018-10-07T12:07:18.889Z,4808.00
2018-10-07T12:08:18.788Z,5044.00
2018-10-07T12:09:18.717Z,5224.00
2018-10-07T12:10:18.722Z,4536.00
2018-10-07T12:11:18.551Z,4656.00
2018-10-07T12:12:18.489Z,5436.00
2018-10-07T12:13:18.401Z,5072.00
2018-10-07T12:14:18.321Z,4864.00
2018-10-07T12:15:18.227Z,5728.00
2018-10-07T12:16:18.153Z,6828.00
2018-10-07T12:17:18.065Z,6372.00
2018-10-07T12:18:17.989Z,5176.00
2018-10-07T12:19:17.901Z,4280.00
2018-10-07T12:20:17.827Z,4208.00
2018-10-07T12:21:17.739Z,4804.00
2018-10-07T12:22:17.665Z,5560.00
2018-10-07T12:23:17.591Z,5320.00
2018-10-07T12:24:17.504Z,5236.00
2018-10-07T12:25:17.418Z,5076.00
2018-10-07T12:26:17.340Z,5108.00
2018-10-07T12:27:17.252Z,5456.00
2018-10-07T12:28:17.179Z,5996.00
2018-10-07T12:29:17.091Z,6836.00
2018-10-07T12:30:17.016Z,6988.00
2018-10-07T12:31:16.928Z,7188.00
2018-10-07T12:32:16.890Z,7776.00
2018-10-07T12:33:16.777Z,8180.00
2018-10-07T12:34:16.691Z,8156.00
2018-10-07T12:35:16.615Z,7948.00
2018-10-07T12:36:16.527Z,7624.00
2018-10-07T12:37:16.442Z,8088.00
2018-10-07T12:38:16.366Z,8008.00
2018-10-07T12:39:16.280Z,7784.00
2018-10-07T12:40:16.206Z,7332.00
2018-10-07T12:41:16.128Z,7328.00
2018-10-07T12:42:16.043Z,7352.00
2018-10-07T12:43:15.968Z,7016.00
2018-10-07T12:44:15.879Z,6796.00
2018-10-07T12:45:15.804Z,6320.00
2018-10-07T12:46:15.717Z,5788.00
2018-10-07T12:47:15.643Z,5548.00